Time;durP1;ratioP1;P1;durP2;ratioP2;P2;SDS_P1;SDS_P2;PMS_P1;PMS_P2;Temp;Humidity;BMP_temperature;BMP_pressure;BME280_temperature;BME280_humidity;BME280_pressure;Samples;Min_cycle;Max_cycle;Signal;HPM_P1;HPM_P2
2023/06/09 00:01:39;;;;;;;;;;;15.90;99.90;;;;;;5023954;28;19989;-69
2023/06/09 00:04:08;;;;;;;;;;;15.80;99.90;;;;;;5023906;28;19921;-70
2023/06/09 00:06:35;;;;;;;;;;;15.90;99.90;;;;;;5024195;28;20125;-70
2023/06/09 00:09:06;;;;;;;;;;;15.90;99.90;;;;;;5024289;28;19928;-70
2023/06/09 00:11:32;;;;;;;;;;;15.90;99.90;;;;;;5022934;28;19922;-69
2023/06/09 00:13:59;;;;;;;;;;;15.90;99.90;;;;;;5034179;28;19963;-70
2023/06/09 00:16:28;;;;;;;;;;;15.90;99.90;;;;;;5043813;28;19921;-69
2023/06/09 00:18:57;;;;;;;;;;;15.90;99.90;;;;;;5043833;28;19931;-70
2023/06/09 00:21:25;;;;;;;;;;;15.80;99.90;;;;;;5043861;28;19921;-70
2023/06/09 00:23:52;;;;;;;;;;;15.80;99.90;;;;;;5042082;28;19978;-70
2023/06/09 00:26:20;;;;;;;;;;;15.80;99.90;;;;;;5043224;28;19988;-69
2023/06/09 00:28:46;;;;;;;;;;;15.80;99.90;;;;;;5043072;28;20145;-70
2023/06/09 00:31:13;;;;;;;;;;;15.80;99.90;;;;;;5043299;28;19988;-70
2023/06/09 00:33:40;;;;;;;;;;;15.80;99.90;;;;;;5043439;28;19984;-70
2023/06/09 00:36:07;;;;;;;;;;;15.90;99.90;;;;;;5043140;28;19921;-70
2023/06/09 00:38:34;;;;;;;;;;;15.80;99.90;;;;;;5043514;28;19928;-70
2023/06/09 00:41:01;;;;;;;;;;;15.80;99.90;;;;;;5043566;28;19998;-70
2023/06/09 00:43:29;;;;;;;;;;;15.80;99.90;;;;;;5043425;28;19980;-69
2023/06/09 00:45:55;;;;;;;;;;;15.80;99.90;;;;;;5042601;28;20248;-70
2023/06/09 00:48:22;;;;;;;;;;;15.80;99.90;;;;;;5043342;28;19927;-69
2023/06/09 00:50:49;;;;;;;;;;;15.70;99.90;;;;;;5043442;28;19933;-70
2023/06/09 00:53:16;;;;;;;;;;;15.70;99.90;;;;;;5043411;28;19988;-70
2023/06/09 00:55:42;;;;;;;;;;;15.70;99.90;;;;;;5043051;28;19921;-70
2023/06/09 00:58:09;;;;;;;;;;;15.70;99.90;;;;;;5043316;28;19953;-70
2023/06/09 01:00:38;;;;;;;;;;;15.70;99.90;;;;;;5042733;28;19985;-70
2023/06/09 01:03:05;;;;;;;;;;;15.70;99.90;;;;;;5023580;28;19940;-69
2023/06/09 01:05:33;;;;;;;;;;;15.70;99.90;;;;;;5033876;28;19921;-70
2023/06/09 01:08:03;;;;;;;;;;;15.70;99.90;;;;;;5043139;28;19925;-70
2023/06/09 01:10:33;;;;;;;;;;;15.70;99.90;;;;;;5035615;28;19921;-70
2023/06/09 01:13:03;;;;;;;;;;;15.70;99.90;;;;;;5024301;28;19926;-69
2023/06/09 01:15:31;;;;;;;;;;;15.70;99.90;;;;;;5042428;28;19921;-70
2023/06/09 01:18:02;;;;;;;;;;;15.70;99.90;;;;;;5039928;28;20288;-69
2023/06/09 01:20:45;;;;;;;;;;;15.70;99.90;;;;;;5043220;28;19921;-69
2023/06/09 01:23:16;;;;;;;;;;;15.70;99.90;;;;;;5043448;28;20121;-70
2023/06/09 01:25:45;;;;;;;;;;;15.70;99.90;;;;;;5046686;28;19921;-71
2023/06/09 01:28:16;;;;;;;;;;;15.80;99.90;;;;;;5046796;28;20049;-69
2023/06/09 01:30:44;;;;;;;;;;;15.80;99.90;;;;;;5047023;28;19968;-70
2023/06/09 01:33:12;;;;;;;;;;;15.80;99.90;;;;;;5046682;28;20252;-70
2023/06/09 01:35:39;;;;;;;;;;;15.70;99.90;;;;;;5046339;28;19921;-69
2023/06/09 01:38:06;;;;;;;;;;;15.80;99.90;;;;;;5046735;28;19921;-70
2023/06/09 01:40:33;;;;;;;;;;;15.80;99.90;;;;;;5046390;28;20239;-70
2023/06/09 01:43:02;;;;;;;;;;;15.80;99.90;;;;;;5046489;28;19921;-70
2023/06/09 01:45:29;;;;;;;;;;;15.80;99.90;;;;;;5045849;28;19921;-70
2023/06/09 01:47:55;;;;;;;;;;;15.80;99.90;;;;;;5046780;28;19984;-70
2023/06/09 01:50:29;;;;;;;;;;;15.80;99.90;;;;;;5046697;28;19988;-69
2023/06/09 01:52:59;;;;;;;;;;;15.80;99.90;;;;;;5046328;28;20231;-70
2023/06/09 01:55:28;;;;;;;;;;;15.80;99.90;;;;;;5046223;28;20144;-69
2023/06/09 01:57:57;;;;;;;;;;;15.80;99.90;;;;;;5044717;28;19984;-71
2023/06/09 02:00:26;;;;;;;;;;;15.80;99.90;;;;;;5046446;28;20095;-69
2023/06/09 02:02:55;;;;;;;;;;;15.80;99.90;;;;;;5035897;28;19922;-69
2023/06/09 02:05:22;;;;;;;;;;;15.80;99.90;;;;;;5046008;28;19927;-70
2023/06/09 02:07:49;;;;;;;;;;;15.90;99.90;;;;;;5046210;28;19992;-71
2023/06/09 02:10:16;;;;;;;;;;;16.00;99.90;;;;;;5046337;28;19987;-70
2023/06/09 02:12:43;;;;;;;;;;;15.90;99.90;;;;;;5045897;28;19960;-70
2023/06/09 02:15:10;;;;;;;;;;;15.90;99.90;;;;;;5045533;28;19952;-70
2023/06/09 02:17:39;;;;;;;;;;;15.90;99.90;;;;;;5046174;28;19968;-69
2023/06/09 02:20:08;;;;;;;;;;;15.80;99.90;;;;;;5045714;28;19949;-70
2023/06/09 02:22:35;;;;;;;;;;;15.80;99.90;;;;;;5045756;28;19975;-70
2023/06/09 02:25:03;;;;;;;;;;;15.80;99.90;;;;;;5044706;28;19921;-70
2023/06/09 02:27:30;;;;;;;;;;;15.80;99.90;;;;;;5039892;28;19928;-69
2023/06/09 02:29:56;;;;;;;;;;;15.70;99.90;;;;;;5026115;28;19984;-70
2023/06/09 02:32:23;;;;;;;;;;;15.70;99.90;;;;;;5025681;28;19960;-70
2023/06/09 02:34:51;;;;;;;;;;;15.70;99.90;;;;;;5042224;28;19948;-70
2023/06/09 02:37:18;;;;;;;;;;;15.70;99.90;;;;;;5045899;28;20124;-70
2023/06/09 02:39:44;;;;;;;;;;;15.60;99.90;;;;;;5045477;28;19983;-70
2023/06/09 02:42:11;;;;;;;;;;;15.70;99.90;;;;;;5045650;28;19960;-70
2023/06/09 02:44:38;;;;;;;;;;;15.70;99.90;;;;;;5044844;28;20223;-70
2023/06/09 02:47:05;;;;;;;;;;;15.70;99.90;;;;;;5045631;28;19967;-70
2023/06/09 02:49:31;;;;;;;;;;;15.60;99.90;;;;;;5045628;28;19987;-70
2023/06/09 02:52:00;;;;;;;;;;;15.60;99.90;;;;;;5045289;28;19988;-70
2023/06/09 02:54:27;;;;;;;;;;;15.70;99.90;;;;;;5044463;28;20195;-69
2023/06/09 02:56:53;;;;;;;;;;;15.70;99.90;;;;;;5045272;28;19921;-70
2023/06/09 02:59:20;;;;;;;;;;;15.60;99.90;;;;;;5045418;28;19943;-70
2023/06/09 03:01:47;;;;;;;;;;;15.60;99.90;;;;;;5045338;28;19952;-70
2023/06/09 03:04:17;;;;;;;;;;;15.60;99.90;;;;;;5044575;28;19922;-70
2023/06/09 03:06:44;;;;;;;;;;;15.60;99.90;;;;;;5045510;28;19921;-70
2023/06/09 03:09:12;;;;;;;;;;;15.60;99.90;;;;;;5044734;28;19921;-70
2023/06/09 03:11:39;;;;;;;;;;;15.50;99.90;;;;;;5044879;28;19997;-70
2023/06/09 03:14:07;;;;;;;;;;;15.50;99.90;;;;;;5044402;28;20124;-70
2023/06/09 03:16:33;;;;;;;;;;;15.50;99.90;;;;;;5045142;28;19921;-70
2023/06/09 03:19:00;;;;;;;;;;;15.50;99.90;;;;;;5045051;28;20124;-70
2023/06/09 03:21:27;;;;;;;;;;;15.50;99.90;;;;;;5044930;28;19997;-70
2023/06/09 03:23:54;;;;;;;;;;;15.50;99.90;;;;;;5043451;28;20169;-70
2023/06/09 03:26:23;;;;;;;;;;;15.50;99.90;;;;;;5044377;28;19921;-70
2023/06/09 03:28:50;;;;;;;;;;;15.50;99.90;;;;;;5044940;28;20012;-70
2023/06/09 03:31:17;;;;;;;;;;;15.40;99.90;;;;;;5044729;28;20000;-70
2023/06/09 03:33:43;;;;;;;;;;;15.40;99.90;;;;;;5044515;28;19936;-69
2023/06/09 03:36:10;;;;;;;;;;;15.30;99.90;;;;;;5043967;28;20238;-69
2023/06/09 03:38:37;;;;;;;;;;;15.40;99.90;;;;;;5031963;28;20180;-70
2023/06/09 03:41:04;;;;;;;;;;;15.30;99.90;;;;;;5043731;28;19984;-69
2023/06/09 03:43:32;;;;;;;;;;;15.30;99.90;;;;;;5040897;28;19921;-69
2023/06/09 03:45:58;;;;;;;;;;;15.20;99.90;;;;;;5043653;28;19921;-70
2023/06/09 03:48:26;;;;;;;;;;;15.20;99.90;;;;;;5044310;28;19921;-70
2023/06/09 03:50:53;;;;;;;;;;;15.20;99.90;;;;;;5044387;28;20161;-70
2023/06/09 03:53:20;;;;;;;;;;;15.20;99.90;;;;;;5043815;28;20327;-70
2023/06/09 03:55:46;;;;;;;;;;;15.20;99.90;;;;;;5043659;28;19977;-70
2023/06/09 03:58:13;;;;;;;;;;;15.20;99.90;;;;;;5044294;28;20009;-70
2023/06/09 04:00:42;;;;;;;;;;;15.10;99.90;;;;;;5043882;28;19928;-70
2023/06/09 04:03:09;;;;;;;;;;;15.10;99.90;;;;;;5043970;28;19921;-70
2023/06/09 04:05:35;;;;;;;;;;;15.10;99.90;;;;;;5043591;28;19988;-70
2023/06/09 04:08:02;;;;;;;;;;;15.00;99.90;;;;;;5043899;28;20163;-70
2023/06/09 04:10:29;;;;;;;;;;;15.00;99.90;;;;;;5042294;28;19963;-69
2023/06/09 04:12:55;;;;;;;;;;;15.00;99.90;;;;;;5028050;28;20181;-69
2023/06/09 04:15:22;;;;;;;;;;;14.90;99.90;;;;;;5042783;28;20235;-69
2023/06/09 04:17:50;;;;;;;;;;;14.90;99.90;;;;;;5043821;28;19984;-70
2023/06/09 04:20:22;;;;;;;;;;;15.00;99.90;;;;;;5043526;28;19928;-72
2023/06/09 04:22:49;;;;;;;;;;;15.00;99.90;;;;;;5041786;28;20119;-70
2023/06/09 04:25:16;;;;;;;;;;;15.00;99.90;;;;;;5042591;28;20079;-70
2023/06/09 04:27:43;;;;;;;;;;;15.10;99.90;;;;;;5043645;28;19921;-69
2023/06/09 04:30:10;;;;;;;;;;;15.10;99.90;;;;;;5043568;28;19984;-69
2023/06/09 04:32:36;;;;;;;;;;;15.10;99.90;;;;;;5028844;28;19921;-69
2023/06/09 04:35:05;;;;;;;;;;;15.20;99.90;;;;;;5023150;28;19921;-68
2023/06/09 04:37:32;;;;;;;;;;;15.20;99.90;;;;;;5030048;28;20152;-70
2023/06/09 04:39:59;;;;;;;;;;;15.20;99.90;;;;;;5043245;28;19948;-69
2023/06/09 04:42:25;;;;;;;;;;;15.20;99.90;;;;;;5043562;28;19984;-70
2023/06/09 04:44:53;;;;;;;;;;;15.30;99.90;;;;;;5042272;28;19952;-70
2023/06/09 04:47:20;;;;;;;;;;;15.30;99.90;;;;;;5026794;28;19989;-70
2023/06/09 04:49:49;;;;;;;;;;;15.40;99.90;;;;;;5033833;28;19921;-70
2023/06/09 04:52:19;;;;;;;;;;;15.50;99.90;;;;;;5043295;28;20000;-68
2023/06/09 04:54:45;;;;;;;;;;;15.60;99.90;;;;;;5030748;28;20335;-70
2023/06/09 04:57:12;;;;;;;;;;;15.70;99.90;;;;;;5042748;28;19987;-70
2023/06/09 04:59:40;;;;;;;;;;;15.80;99.90;;;;;;5042891;28;19920;-71
2023/06/09 05:02:07;;;;;;;;;;;15.80;99.90;;;;;;5043015;28;19983;-70
2023/06/09 05:04:34;;;;;;;;;;;15.90;99.90;;;;;;5043045;28;19921;-69
2023/06/09 05:07:01;;;;;;;;;;;16.00;99.90;;;;;;5043048;28;19951;-74
2023/06/09 05:09:29;;;;;;;;;;;16.10;99.90;;;;;;5043643;28;19921;-69
2023/06/09 05:11:59;;;;;;;;;;;16.10;99.90;;;;;;5039850;28;19945;-70
2023/06/09 05:14:26;;;;;;;;;;;16.20;99.90;;;;;;5042051;28;19921;-72
2023/06/09 05:16:53;;;;;;;;;;;16.20;99.90;;;;;;5042811;28;19921;-71
2023/06/09 05:19:20;;;;;;;;;;;16.20;99.90;;;;;;5043217;28;19921;-72
2023/06/09 05:21:47;;;;;;;;;;;16.30;99.90;;;;;;5041798;28;20004;-70
2023/06/09 05:24:13;;;;;;;;;;;16.40;99.90;;;;;;5041779;28;19996;-72
2023/06/09 05:26:41;;;;;;;;;;;16.50;99.90;;;;;;5037446;28;19922;-72
2023/06/09 05:29:08;;;;;;;;;;;16.60;99.90;;;;;;5024542;28;19988;-72
2023/06/09 05:31:35;;;;;;;;;;;16.70;99.90;;;;;;5042470;28;19921;-71
2023/06/09 05:34:01;;;;;;;;;;;16.80;99.90;;;;;;5042336;28;19970;-72
2023/06/09 05:36:29;;;;;;;;;;;16.90;99.90;;;;;;5042518;28;19985;-72
2023/06/09 05:38:55;;;;;;;;;;;17.00;99.90;;;;;;5042389;28;20125;-72
2023/06/09 05:41:22;;;;;;;;;;;17.10;99.90;;;;;;5042026;28;19984;-72
2023/06/09 05:43:50;;;;;;;;;;;17.20;99.90;;;;;;5042103;28;19984;-73
2023/06/09 05:46:17;;;;;;;;;;;17.20;99.90;;;;;;5042409;28;19921;-73
2023/06/09 05:48:43;;;;;;;;;;;17.30;99.90;;;;;;5036841;28;20319;-71
2023/06/09 05:51:10;;;;;;;;;;;17.40;99.90;;;;;;5035794;28;19984;-73
2023/06/09 05:53:37;;;;;;;;;;;17.40;99.90;;;;;;5026989;28;19959;-72
2023/06/09 05:56:05;;;;;;;;;;;17.50;99.90;;;;;;5039422;28;19921;-72
2023/06/09 05:58:33;;;;;;;;;;;17.50;99.90;;;;;;5042382;28;19921;-72
2023/06/09 06:01:02;;;;;;;;;;;17.60;99.90;;;;;;5027063;28;20236;-71
2023/06/09 06:03:29;;;;;;;;;;;17.60;99.90;;;;;;5033217;28;19925;-73
2023/06/09 06:05:56;;;;;;;;;;;17.60;99.90;;;;;;5030959;28;19921;-72
2023/06/09 06:08:22;;;;;;;;;;;17.70;99.90;;;;;;5042732;28;20162;-72
2023/06/09 06:10:49;;;;;;;;;;;17.80;99.90;;;;;;5044656;28;19993;-73
2023/06/09 06:13:16;;;;;;;;;;;17.80;99.90;;;;;;5046418;28;19921;-73
2023/06/09 06:15:43;;;;;;;;;;;17.90;99.90;;;;;;5045087;28;19921;-72
2023/06/09 06:18:10;;;;;;;;;;;18.00;99.90;;;;;;5045933;28;19921;-73
2023/06/09 06:20:37;;;;;;;;;;;18.00;99.90;;;;;;5045335;28;20255;-73
2023/06/09 06:23:07;;;;;;;;;;;18.00;99.90;;;;;;5043940;28;19964;-75
2023/06/09 06:25:36;;;;;;;;;;;18.10;99.90;;;;;;5024338;28;19929;-71
2023/06/09 06:28:02;;;;;;;;;;;18.20;99.90;;;;;;5024814;28;19930;-73
2023/06/09 06:30:29;;;;;;;;;;;18.20;99.90;;;;;;5040869;28;19921;-72
2023/06/09 06:32:56;;;;;;;;;;;18.30;99.90;;;;;;5043415;28;19921;-72
2023/06/09 06:35:25;;;;;;;;;;;18.30;99.90;;;;;;5043038;28;19929;-72
2023/06/09 06:37:52;;;;;;;;;;;18.40;99.90;;;;;;5043244;28;19921;-72
2023/06/09 06:40:19;;;;;;;;;;;18.50;99.90;;;;;;5043685;28;19929;-70
2023/06/09 06:42:45;;;;;;;;;;;18.50;99.90;;;;;;5043048;28;20008;-72
2023/06/09 06:45:12;;;;;;;;;;;18.60;99.90;;;;;;5042175;28;19956;-73
2023/06/09 06:47:40;;;;;;;;;;;18.60;99.90;;;;;;5044451;28;19953;-73
2023/06/09 06:50:08;;;;;;;;;;;18.70;99.90;;;;;;5044609;28;20090;-74
2023/06/09 06:52:36;;;;;;;;;;;18.70;99.90;;;;;;5044565;28;19928;-74
2023/06/09 06:55:02;;;;;;;;;;;18.80;99.90;;;;;;5043432;28;20016;-74
2023/06/09 06:57:29;;;;;;;;;;;18.90;99.90;;;;;;5044166;28;19921;-72
2023/06/09 06:59:56;;;;;;;;;;;19.00;99.90;;;;;;5044304;28;19976;-73
2023/06/09 07:02:23;;;;;;;;;;;19.10;99.90;;;;;;5044348;28;19921;-72
2023/06/09 07:04:50;;;;;;;;;;;19.10;99.90;;;;;;5042674;28;20304;-73
2023/06/09 07:07:17;;;;;;;;;;;19.20;99.90;;;;;;5043527;28;19971;-75
2023/06/09 07:09:45;;;;;;;;;;;19.30;99.90;;;;;;5043635;28;19984;-74
2023/06/09 07:12:11;;;;;;;;;;;19.30;99.90;;;;;;5044886;28;20168;-72
2023/06/09 07:14:38;;;;;;;;;;;19.30;99.90;;;;;;5044019;28;19989;-73
2023/06/09 07:17:05;;;;;;;;;;;19.30;99.90;;;;;;5044952;28;19959;-73
2023/06/09 07:19:31;;;;;;;;;;;19.40;99.90;;;;;;5045005;28;19986;-74
2023/06/09 07:21:58;;;;;;;;;;;19.50;99.90;;;;;;5041717;28;19921;-73
2023/06/09 07:24:25;;;;;;;;;;;19.50;99.90;;;;;;5037518;28;19956;-74
2023/06/09 07:26:53;;;;;;;;;;;19.70;99.90;;;;;;5024807;28;20284;-74
2023/06/09 07:29:20;;;;;;;;;;;19.80;99.90;;;;;;5036186;28;19925;-73
2023/06/09 07:31:46;;;;;;;;;;;19.90;99.90;;;;;;5044159;28;19967;-71
2023/06/09 07:34:14;;;;;;;;;;;20.00;99.90;;;;;;5043848;28;19995;-72
2023/06/09 07:36:40;;;;;;;;;;;20.10;99.90;;;;;;5043854;28;19925;-72
2023/06/09 07:39:07;;;;;;;;;;;20.10;99.90;;;;;;5024778;28;20198;-73
2023/06/09 07:41:37;;;;;;;;;;;20.20;99.90;;;;;;5044062;28;20094;-72
2023/06/09 07:44:06;;;;;;;;;;;20.20;99.90;;;;;;5044244;28;19921;-71
2023/06/09 07:46:32;;;;;;;;;;;20.30;99.90;;;;;;5044711;28;20164;-71
2023/06/09 07:48:59;;;;;;;;;;;20.30;99.90;;;;;;5044324;28;20254;-71
2023/06/09 07:51:28;;;;;;;;;;;20.40;99.90;;;;;;5044063;28;19921;-71
2023/06/09 07:53:55;;;;;;;;;;;20.40;99.90;;;;;;5043869;28;20216;-72
2023/06/09 07:56:22;;;;;;;;;;;20.50;99.90;;;;;;5043541;28;19984;-71
2023/06/09 07:58:49;;;;;;;;;;;20.60;99.90;;;;;;5043640;28;19921;-72
2023/06/09 08:01:17;;;;;;;;;;;20.70;99.90;;;;;;5044306;28;19921;-72
2023/06/09 08:03:44;;;;;;;;;;;20.70;99.90;;;;;;5043777;28;19929;-72
2023/06/09 08:06:10;;;;;;;;;;;20.80;99.90;;;;;;5043594;28;19952;-72
2023/06/09 08:08:37;;;;;;;;;;;20.80;99.90;;;;;;5044168;28;19921;-71
2023/06/09 08:11:04;;;;;;;;;;;20.80;99.90;;;;;;5038204;28;19972;-71
2023/06/09 08:13:31;;;;;;;;;;;20.90;99.90;;;;;;5035092;28;19921;-73
2023/06/09 08:15:57;;;;;;;;;;;20.90;99.90;;;;;;5043299;28;19978;-73
2023/06/09 08:18:25;;;;;;;;;;;21.00;99.90;;;;;;5044094;28;19956;-72
2023/06/09 08:20:52;;;;;;;;;;;21.10;99.90;;;;;;5043916;28;19996;-72
2023/06/09 08:23:20;;;;;;;;;;;21.10;99.90;;;;;;5044000;28;20103;-73
2023/06/09 08:25:47;;;;;;;;;;;21.10;99.90;;;;;;5034913;28;19984;-72
2023/06/09 08:28:13;;;;;;;;;;;21.10;99.90;;;;;;5043948;28;19921;-72
2023/06/09 08:30:40;;;;;;;;;;;21.20;99.90;;;;;;5043899;28;19921;-72
2023/06/09 08:33:07;;;;;;;;;;;21.30;99.90;;;;;;5042728;28;19984;-73
2023/06/09 08:35:35;;;;;;;;;;;21.40;99.90;;;;;;5043461;28;19921;-72
2023/06/09 08:38:01;;;;;;;;;;;21.50;99.90;;;;;;5032221;28;19929;-73
2023/06/09 08:40:28;;;;;;;;;;;21.50;99.90;;;;;;5033075;28;19958;-70
2023/06/09 08:42:56;;;;;;;;;;;21.60;99.90;;;;;;5024122;28;19993;-72
2023/06/09 08:45:23;;;;;;;;;;;21.80;99.90;;;;;;5032877;28;19944;-72
2023/06/09 08:47:50;;;;;;;;;;;21.90;99.90;;;;;;5039143;28;19921;-72
2023/06/09 08:50:18;;;;;;;;;;;21.90;99.90;;;;;;5043451;28;19952;-72
2023/06/09 08:52:56;;;;;;;;;;;21.90;99.90;;;;;;5043399;28;20292;-72
2023/06/09 08:55:23;;;;;;;;;;;22.00;99.90;;;;;;5042549;28;19925;-73
2023/06/09 08:57:50;;;;;;;;;;;22.10;99.90;;;;;;5043538;28;19964;-73
2023/06/09 09:00:17;;;;;;;;;;;22.20;99.90;;;;;;5043482;28;19928;-70
2023/06/09 09:02:44;;;;;;;;;;;22.30;99.90;;;;;;5043019;28;20213;-72
2023/06/09 09:05:10;;;;;;;;;;;22.30;99.90;;;;;;5042956;28;19927;-73
2023/06/09 09:07:37;;;;;;;;;;;22.40;99.90;;;;;;5042807;28;19928;-72
2023/06/09 09:10:05;;;;;;;;;;;22.50;99.90;;;;;;5043011;28;19921;-73
2023/06/09 09:12:45;;;;;;;;;;;22.60;99.90;;;;;;5043245;28;19988;-72
2023/06/09 09:15:11;;;;;;;;;;;22.70;99.90;;;;;;5042377;28;19921;-72
2023/06/09 09:17:40;;;;;;;;;;;22.70;99.90;;;;;;5043227;28;19991;-72
2023/06/09 09:20:07;;;;;;;;;;;22.70;99.90;;;;;;5043014;28;20183;-72
2023/06/09 09:22:43;;;;;;;;;;;22.80;99.90;;;;;;5043253;28;19988;-72
2023/06/09 09:25:20;;;;;;;;;;;22.90;99.90;;;;;;5042867;28;19925;-71
2023/06/09 09:27:58;;;;;;;;;;;23.00;99.90;;;;;;5042901;28;19927;-73
2023/06/09 09:30:40;;;;;;;;;;;23.00;99.90;;;;;;5043276;28;19921;-72
2023/06/09 09:33:07;;;;;;;;;;;23.10;99.90;;;;;;5034197;28;19921;-72
2023/06/09 09:35:36;;;;;;;;;;;23.10;99.90;;;;;;5042763;28;19991;-71
2023/06/09 09:38:02;;;;;;;;;;;23.20;99.90;;;;;;5042999;28;19964;-73
2023/06/09 09:40:30;;;;;;;;;;;23.20;99.90;;;;;;5043119;28;19993;-72
2023/06/09 09:42:59;;;;;;;;;;;23.40;99.90;;;;;;5043196;28;19921;-72
2023/06/09 09:45:26;;;;;;;;;;;23.40;99.90;;;;;;5045289;28;19980;-72
2023/06/09 09:47:53;;;;;;;;;;;23.50;99.90;;;;;;5046780;28;19960;-72
2023/06/09 09:50:23;;;;;;;;;;;23.70;99.90;;;;;;5046775;28;19988;-72
2023/06/09 09:52:51;;;;;;;;;;;23.80;99.90;;;;;;5046425;28;20220;-72
2023/06/09 09:55:18;;;;;;;;;;;23.80;99.90;;;;;;5045978;28;19921;-73
2023/06/09 09:57:46;;;;;;;;;;;23.90;99.90;;;;;;5046623;28;19928;-72
2023/06/09 10:00:13;;;;;;;;;;;24.00;99.90;;;;;;5046625;28;19920;-72
2023/06/09 10:02:42;;;;;;;;;;;24.10;99.90;;;;;;5031191;28;20152;-72
2023/06/09 10:05:11;;;;;;;;;;;24.20;99.90;;;;;;5026356;28;19993;-70
2023/06/09 10:07:40;;;;;;;;;;;24.20;99.90;;;;;;5034271;28;19928;-72
2023/06/09 10:10:08;;;;;;;;;;;24.40;99.90;;;;;;5046383;28;19929;-72
2023/06/09 10:12:36;;;;;;;;;;;24.40;99.90;;;;;;5046401;28;19928;-71
2023/06/09 10:15:06;;;;;;;;;;;24.40;99.90;;;;;;5029931;28;19928;-71
2023/06/09 10:17:33;;;;;;;;;;;24.40;99.90;;;;;;5042674;28;19992;-72
2023/06/09 10:20:00;;;;;;;;;;;24.40;99.90;;;;;;5038529;28;19921;-72
2023/06/09 10:22:27;;;;;;;;;;;24.50;99.90;;;;;;5045948;28;20069;-72
2023/06/09 10:24:54;;;;;;;;;;;24.70;99.90;;;;;;5041254;28;19921;-72
2023/06/09 10:27:21;;;;;;;;;;;24.80;99.90;;;;;;5025952;28;19935;-73
2023/06/09 10:29:48;;;;;;;;;;;24.90;99.90;;;;;;5026027;28;19985;-71
2023/06/09 10:32:16;;;;;;;;;;;25.10;99.90;;;;;;5032619;28;19988;-72
2023/06/09 10:34:47;;;;;;;;;;;25.20;99.90;;;;;;5045262;28;19921;-72
2023/06/09 10:37:14;;;;;;;;;;;25.30;99.90;;;;;;5045532;28;20229;-72
2023/06/09 10:39:49;;;;;;;;;;;25.40;99.90;;;;;;5045878;28;19983;-73
2023/06/09 10:42:22;;;;;;;;;;;25.50;99.90;;;;;;5046007;28;20000;-71
2023/06/09 10:44:58;;;;;;;;;;;25.60;99.90;;;;;;5045036;28;19921;-73
2023/06/09 10:47:40;;;;;;;;;;;25.80;99.90;;;;;;5045032;28;19984;-72
2023/06/09 10:50:20;;;;;;;;;;;25.90;99.90;;;;;;5029280;28;19984;-71
2023/06/09 10:52:52;;;;;;;;;;;26.00;99.90;;;;;;5042488;28;20171;-71
2023/06/09 10:55:21;;;;;;;;;;;26.10;99.90;;;;;;5044059;28;20224;-71
2023/06/09 10:57:47;;;;;;;;;;;26.30;99.90;;;;;;5045597;28;19921;-70
2023/06/09 11:00:16;;;;;;;;;;;26.30;99.90;;;;;;5044804;28;19964;-70
2023/06/09 11:02:43;;;;;;;;;;;26.40;99.90;;;;;;5033807;28;20032;-71
2023/06/09 11:05:11;;;;;;;;;;;26.50;99.90;;;;;;5041661;28;20116;-71
2023/06/09 11:07:43;;;;;;;;;;;26.50;99.90;;;;;;5037146;28;19984;-71
2023/06/09 11:10:33;;;;;;;;;;;26.50;99.90;;;;;;5033636;28;19967;-71
2023/06/09 11:13:00;;;;;;;;;;;26.40;99.90;;;;;;5045112;28;19943;-72
2023/06/09 11:15:46;;;;;;;;;;;26.20;99.90;;;;;;5044671;28;19928;-72
2023/06/09 11:18:16;;;;;;;;;;;26.30;99.90;;;;;;5045060;28;19927;-71
2023/06/09 11:20:44;;;;;;;;;;;26.40;99.90;;;;;;5045162;28;19920;-70
2023/06/09 11:23:11;;;;;;;;;;;26.40;99.90;;;;;;5040619;28;19977;-71
2023/06/09 11:25:40;;;;;;;;;;;26.20;99.90;;;;;;5039489;28;19980;-71
2023/06/09 11:28:20;;;;;;;;;;;26.00;99.90;;;;;;5044735;28;19944;-70
2023/06/09 11:31:03;;;;;;;;;;;26.00;99.90;;;;;;5033772;28;20266;-69
2023/06/09 11:33:39;;;;;;;;;;;26.20;99.90;;;;;;5044447;28;19921;-71
2023/06/09 11:36:08;;;;;;;;;;;26.30;99.90;;;;;;5044254;28;19920;-72
2023/06/09 11:38:34;;;;;;;;;;;26.50;99.90;;;;;;5044762;28;19992;-71
2023/06/09 11:41:01;;;;;;;;;;;26.80;99.90;;;;;;5045001;28;20167;-70
2023/06/09 11:43:28;;;;;;;;;;;27.00;99.90;;;;;;5044569;28;19921;-72
2023/06/09 11:49:10;;;;;;;;;;;27.50;99.90;;;;;;5036633;28;19959;-72
2023/06/09 11:51:53;;;;;;;;;;;27.50;99.90;;;;;;5044500;28;19980;-72
2023/06/09 11:54:41;;;;;;;;;;;27.40;99.90;;;;;;5043693;28;20140;-71
2023/06/09 11:57:14;;;;;;;;;;;27.60;99.90;;;;;;5023394;28;19930;-72
2023/06/09 11:59:41;;;;;;;;;;;27.80;99.90;;;;;;5041638;28;19935;-71
2023/06/09 12:02:11;;;;;;;;;;;28.00;99.90;;;;;;5044054;28;19936;-72
2023/06/09 12:04:42;;;;;;;;;;;28.10;99.90;;;;;;5029800;28;19935;-70
2023/06/09 12:07:18;;;;;;;;;;;28.20;99.90;;;;;;5043090;28;19929;-72
2023/06/09 12:09:47;;;;;;;;;;;28.40;99.40;;;;;;5043902;28;20170;-71
2023/06/09 12:12:14;;;;;;;;;;;28.60;99.90;;;;;;5043911;28;19921;-71
2023/06/09 12:14:40;;;;;;;;;;;28.90;99.90;;;;;;5042474;28;20149;-70
2023/06/09 12:17:07;;;;;;;;;;;29.20;98.70;;;;;;5042464;28;20003;-71
2023/06/09 12:19:33;;;;;;;;;;;29.40;97.80;;;;;;5043887;28;19988;-71
2023/06/09 12:22:00;;;;;;;;;;;29.70;98.10;;;;;;5044056;28;19997;-72
2023/06/09 12:24:31;;;;;;;;;;;29.90;97.20;;;;;;5042919;28;19928;-73
2023/06/09 12:26:58;;;;;;;;;;;30.10;96.60;;;;;;5042728;28;19928;-71
2023/06/09 12:29:25;;;;;;;;;;;30.30;96.10;;;;;;5038479;28;19921;-72
2023/06/09 12:35:12;;;;;;;;;;;30.30;95.70;;;;;;5018284;28;19924;-71
2023/06/09 12:37:41;;;;;;;;;;;30.10;95.30;;;;;;5042017;28;20684;-70
2023/06/09 12:40:10;;;;;;;;;;;29.70;94.90;;;;;;5041843;28;19922;-71
2023/06/09 12:42:47;;;;;;;;;;;29.30;95.10;;;;;;5035208;28;19921;-71
2023/06/09 12:45:23;;;;;;;;;;;29.10;94.10;;;;;;5042660;28;19963;-71
2023/06/09 12:50:40;;;;;;;;;;;29.30;94.60;;;;;;5039789;28;20185;-71
2023/06/09 12:53:07;;;;;;;;;;;29.50;94.40;;;;;;5043168;28;19921;-72
2023/06/09 12:55:35;;;;;;;;;;;29.60;94.60;;;;;;5040082;28;19921;-72
2023/06/09 12:58:02;;;;;;;;;;;29.50;94.30;;;;;;5043143;28;19984;-72
2023/06/09 13:00:29;;;;;;;;;;;29.30;93.30;;;;;;5043077;28;19928;-72
2023/06/09 13:03:24;;;;;;;;;;;29.30;94.00;;;;;;5035230;28;20239;-72
2023/06/09 13:05:59;;;;;;;;;;;29.30;93.80;;;;;;5038500;28;19921;-72
2023/06/09 13:08:26;;;;;;;;;;;29.20;92.80;;;;;;5042111;28;19960;-71
2023/06/09 13:10:53;;;;;;;;;;;28.90;93.30;;;;;;5043082;28;19921;-73
2023/06/09 13:13:20;;;;;;;;;;;28.90;92.90;;;;;;5042514;28;19928;-71
2023/06/09 13:15:48;;;;;;;;;;;28.80;92.40;;;;;;5040962;28;19921;-71
2023/06/09 13:18:15;;;;;;;;;;;29.00;92.50;;;;;;5043291;28;19992;-71
2023/06/09 13:20:41;;;;;;;;;;;29.10;92.30;;;;;;5038270;28;20397;-71
2023/06/09 13:23:08;;;;;;;;;;;29.10;91.80;;;;;;5036947;28;19921;-71
2023/06/09 13:25:40;;;;;;;;;;;28.80;92.70;;;;;;5026728;28;19921;-71
2023/06/09 13:28:08;;;;;;;;;;;28.70;92.50;;;;;;5032605;28;19987;-73
2023/06/09 13:30:35;;;;;;;;;;;28.60;91.80;;;;;;5047388;28;19988;-70
2023/06/09 13:33:02;;;;;;;;;;;28.50;92.40;;;;;;5047205;28;19928;-71
2023/06/09 13:35:28;;;;;;;;;;;28.50;93.20;;;;;;5046208;28;19960;-71
2023/06/09 13:37:56;;;;;;;;;;;28.30;92.90;;;;;;5043234;28;19968;-71
2023/06/09 13:40:22;;;;;;;;;;;28.30;94.00;;;;;;5033495;28;20213;-71
2023/06/09 13:42:52;;;;;;;;;;;28.40;94.70;;;;;;5047255;28;19921;-71
2023/06/09 13:45:20;;;;;;;;;;;28.50;94.00;;;;;;5045640;28;19921;-72
2023/06/09 13:47:47;;;;;;;;;;;28.40;94.80;;;;;;5046540;28;19987;-71
2023/06/09 13:50:13;;;;;;;;;;;28.50;95.00;;;;;;5046500;28;20258;-71
2023/06/09 13:52:40;;;;;;;;;;;28.50;94.50;;;;;;5046680;28;19984;-71
2023/06/09 13:55:07;;;;;;;;;;;28.50;94.60;;;;;;5046158;28;19943;-70
2023/06/09 13:57:34;;;;;;;;;;;28.50;95.20;;;;;;5046682;28;19992;-71
2023/06/09 14:00:01;;;;;;;;;;;28.90;95.60;;;;;;5046491;28;19932;-71
2023/06/09 14:02:29;;;;;;;;;;;29.20;93.30;;;;;;5046684;28;19921;-71
2023/06/09 14:04:59;;;;;;;;;;;29.50;91.70;;;;;;5045445;28;19964;-72
2023/06/09 14:07:25;;;;;;;;;;;29.50;92.70;;;;;;5046598;28;19963;-70
2023/06/09 14:09:52;;;;;;;;;;;29.60;92.00;;;;;;5046111;28;20239;-70
2023/06/09 14:12:19;;;;;;;;;;;29.60;91.00;;;;;;5046079;28;20240;-71
2023/06/09 14:14:45;;;;;;;;;;;29.70;91.40;;;;;;5040174;28;19929;-71
2023/06/09 14:17:12;;;;;;;;;;;29.40;90.30;;;;;;5026622;28;20173;-75
2023/06/09 14:19:40;;;;;;;;;;;29.20;90.50;;;;;;5045228;28;19981;-74
2023/06/09 14:22:07;;;;;;;;;;;29.00;90.20;;;;;;5028850;28;19922;-74
2023/06/09 14:24:34;;;;;;;;;;;28.70;90.20;;;;;;5038538;28;19988;-75
2023/06/09 14:27:01;;;;;;;;;;;28.40;90.70;;;;;;5036998;28;19921;-74
2023/06/09 14:29:27;;;;;;;;;;;28.30;91.00;;;;;;5038719;28;19928;-74
2023/06/09 14:31:54;;;;;;;;;;;28.20;90.60;;;;;;5044203;28;20205;-72